Time;durP1;ratioP1;P1;durP2;ratioP2;P2;SDS_P1;SDS_P2;PMS_P1;PMS_P2;Temp;Humidity;BMP_temperature;BMP_pressure;BME280_temperature;BME280_humidity;BME280_pressure;Samples;Min_cycle;Max_cycle;Signal;HPM_P1;HPM_P2
2024/01/02 00:01:50;;;;;;;5.17;1.33;;;;;;;7.43;100.00;99654.94;4923575;29;20267;-70
2024/01/02 00:04:16;;;;;;;4.37;1.10;;;;;;;7.41;100.00;99646.16;4949654;28;20201;-70
2024/01/02 00:06:42;;;;;;;5.77;1.60;;;;;;;7.43;100.00;99645.31;4920756;29;20199;-71
2024/01/02 00:09:09;;;;;;;2.70;1.00;;;;;;;7.40;100.00;99641.75;4923891;29;20199;-72
2024/01/02 00:11:35;;;;;;;3.97;1.33;;;;;;;7.38;100.00;99638.19;4922995;29;20230;-72
2024/01/02 00:14:02;;;;;;;3.10;1.23;;;;;;;7.37;100.00;99626.78;4924463;29;20310;-71
2024/01/02 00:16:28;;;;;;;2.47;1.20;;;;;;;7.36;100.00;99632.91;4922684;29;20222;-72
2024/01/02 00:18:54;;;;;;;5.17;1.53;;;;;;;7.32;100.00;99624.94;4923156;29;20679;-71
2024/01/02 00:21:21;;;;;;;1.67;1.00;;;;;;;7.27;100.00;99616.09;4951514;23;20319;-68
2024/01/02 00:23:47;;;;;;;3.50;1.20;;;;;;;7.21;100.00;99615.16;4956533;28;20233;-70
2024/01/02 00:26:14;;;;;;;4.63;1.60;;;;;;;7.15;100.00;99617.69;4956962;28;20804;-70
2024/01/02 00:28:40;;;;;;;2.50;1.30;;;;;;;7.09;100.00;99612.31;4960823;28;20216;-69
2024/01/02 00:31:08;;;;;;;5.17;1.40;;;;;;;7.04;100.00;99607.84;4948887;28;20234;-70
2024/01/02 00:33:34;;;;;;;6.50;1.47;;;;;;;7.02;100.00;99596.44;4942917;28;20219;-70
2024/01/02 00:36:00;;;;;;;4.20;1.50;;;;;;;6.99;100.00;99596.38;4942470;29;20755;-70
2024/01/02 00:38:28;;;;;;;3.70;1.43;;;;;;;6.98;100.00;99589.34;4941628;28;20853;-70
2024/01/02 00:40:54;;;;;;;3.53;1.20;;;;;;;7.00;100.00;99583.25;4942631;28;20223;-69
2024/01/02 00:43:21;;;;;;;6.53;1.70;;;;;;;7.01;100.00;99584.13;4943349;28;20232;-70
2024/01/02 00:45:47;;;;;;;3.47;1.30;;;;;;;6.97;100.00;99577.03;4942750;29;20741;-70
2024/01/02 00:48:14;;;;;;;3.60;1.50;;;;;;;6.98;100.00;99578.81;4944198;28;20238;-70
2024/01/02 00:50:40;;;;;;;7.17;1.60;;;;;;;6.95;100.00;99577.03;4942226;28;20222;-70
2024/01/02 00:53:07;;;;;;;7.87;1.47;;;;;;;6.93;100.00;99564.72;4942024;28;20582;-70
2024/01/02 00:55:33;;;;;;;3.80;1.23;;;;;;;6.90;100.00;99566.44;4942868;29;20491;-70
2024/01/02 00:58:00;;;;;;;1.67;1.13;;;;;;;6.88;100.00;99549.75;4940935;28;20302;-70
2024/01/02 01:00:26;;;;;;;4.87;1.37;;;;;;;6.87;100.00;99555.88;4942156;28;20222;-69
2024/01/02 01:02:53;;;;;;;3.27;1.73;;;;;;;6.86;100.00;99548.84;4957637;28;20207;-70
2024/01/02 01:05:19;;;;;;;6.30;1.83;;;;;;;6.84;100.00;99540.03;4956718;28;20209;-70
2024/01/02 01:07:46;;;;;;;3.93;1.23;;;;;;;6.84;100.00;99533.88;4941903;28;20230;-69
2024/01/02 01:10:12;;;;;;;3.73;1.67;;;;;;;6.82;100.00;99515.44;4943705;28;20211;-70
2024/01/02 01:12:39;;;;;;;3.83;1.40;;;;;;;6.79;100.00;99514.50;4942542;29;20706;-68
2024/01/02 01:15:05;;;;;;;4.50;1.73;;;;;;;6.76;100.00;99512.69;4941865;28;20230;-69
2024/01/02 01:17:32;;;;;;;7.57;1.77;;;;;;;6.71;100.00;99506.50;4943546;28;20203;-69
2024/01/02 01:19:58;;;;;;;5.67;1.60;;;;;;;6.71;100.00;99506.50;4941817;28;20220;-69
2024/01/02 01:22:25;;;;;;;7.37;1.47;;;;;;;6.67;100.00;99503.78;4942111;28;20208;-70
2024/01/02 01:24:51;;;;;;;3.50;1.60;;;;;;;6.69;100.00;99495.06;4941572;28;20315;-69
2024/01/02 01:27:17;;;;;;;2.97;1.40;;;;;;;6.69;100.00;99481.03;4941886;29;20213;-69
2024/01/02 01:29:44;;;;;;;2.80;1.47;;;;;;;6.69;100.00;99475.75;4945602;28;20217;-69
2024/01/02 01:32:11;;;;;;;4.07;1.97;;;;;;;6.66;100.00;99473.09;4947838;28;20252;-70
2024/01/02 01:34:37;;;;;;;4.43;1.37;;;;;;;6.60;100.00;99459.00;4945341;28;20221;-70
2024/01/02 01:37:04;;;;;;;6.43;1.70;;;;;;;6.60;100.00;99460.72;4945734;29;20510;-70
2024/01/02 01:39:31;;;;;;;3.27;1.20;;;;;;;6.64;100.00;99457.28;4946155;28;20247;-69
2024/01/02 01:41:57;;;;;;;2.60;1.60;;;;;;;6.57;100.00;99450.16;4946141;28;20222;-69
2024/01/02 01:44:23;;;;;;;6.03;1.20;;;;;;;6.56;100.00;99456.28;4945465;29;20216;-69
2024/01/02 01:46:51;;;;;;;2.33;1.40;;;;;;;6.52;100.00;99459.75;4943810;29;20232;-69
2024/01/02 01:49:18;;;;;;;3.23;1.30;;;;;;;6.53;100.00;99449.25;4959882;28;20213;-69
2024/01/02 01:51:46;;;;;;;4.17;1.40;;;;;;;6.53;100.00;99451.00;4944324;28;20509;-69
2024/01/02 01:54:14;;;;;;;1.90;1.33;;;;;;;6.47;100.00;99443.03;4945900;28;20319;-69
2024/01/02 01:56:42;;;;;;;2.57;1.27;;;;;;;6.49;100.00;99443.91;4960479;28;20231;-69
2024/01/02 01:59:11;;;;;;;3.83;1.33;;;;;;;6.46;100.00;99431.63;4946181;28;20202;-69
2024/01/02 02:01:38;;;;;;;3.87;1.50;;;;;;;6.45;100.00;99428.97;4947064;28;20235;-69
2024/01/02 02:04:05;;;;;;;7.37;1.57;;;;;;;6.46;100.00;99431.63;4951339;28;20686;-69
2024/01/02 02:06:34;;;;;;;3.93;1.47;;;;;;;6.43;100.00;99407.03;4946646;28;20206;-69
2024/01/02 02:09:00;;;;;;;4.90;1.70;;;;;;;6.44;100.00;99416.69;4944571;28;20212;-69
2024/01/02 02:11:28;;;;;;;3.20;1.10;;;;;;;6.38;100.00;99406.03;4960347;28;20237;-70
2024/01/02 02:13:55;;;;;;;3.20;1.67;;;;;;;6.37;100.00;99393.75;4945868;28;20692;-69
2024/01/02 02:16:21;;;;;;;3.87;1.60;;;;;;;6.37;100.00;99391.13;4945118;29;20269;-69
2024/01/02 02:18:48;;;;;;;2.33;1.40;;;;;;;6.35;100.00;99384.97;4943660;28;20760;-69
2024/01/02 02:21:14;;;;;;;2.83;1.47;;;;;;;6.33;100.00;99379.69;4940406;28;20244;-70
2024/01/02 02:23:41;;;;;;;4.57;1.50;;;;;;;6.35;100.00;99379.72;4944115;28;20273;-69
2024/01/02 02:26:07;;;;;;;4.83;1.60;;;;;;;6.33;100.00;99371.81;4944339;28;20236;-70
2024/01/02 02:28:33;;;;;;;4.13;1.40;;;;;;;6.32;100.00;99359.50;4942563;28;20588;-69
2024/01/02 02:31:00;;;;;;;3.73;1.33;;;;;;;6.33;100.00;99353.41;4942106;28;20260;-69
2024/01/02 02:33:26;;;;;;;3.17;1.67;;;;;;;6.35;100.00;99356.03;4945909;29;20208;-69
2024/01/02 02:35:53;;;;;;;3.30;1.50;;;;;;;6.33;100.00;99342.88;4943682;29;20213;-69
2024/01/02 02:38:20;;;;;;;2.40;1.10;;;;;;;6.36;100.00;99332.41;4944714;28;20485;-69
2024/01/02 02:40:46;;;;;;;3.40;1.77;;;;;;;6.35;100.00;99324.50;4943085;28;20228;-69
2024/01/02 02:43:13;;;;;;;2.97;1.20;;;;;;;6.34;100.00;99304.31;4960060;28;20207;-69
2024/01/02 02:45:39;;;;;;;4.17;1.20;;;;;;;6.36;100.00;99300.84;4942991;28;20232;-69
2024/01/02 02:48:06;;;;;;;2.60;1.27;;;;;;;6.29;100.00;99299.00;4959375;28;20270;-69
2024/01/02 02:50:33;;;;;;;2.90;1.30;;;;;;;6.31;100.00;99299.03;4958596;28;20308;-69
2024/01/02 02:53:00;;;;;;;3.77;1.20;;;;;;;6.34;100.00;99304.31;4944390;29;20252;-69
2024/01/02 02:55:26;;;;;;;2.97;1.20;;;;;;;6.37;100.00;99299.97;4944270;29;20589;-70
2024/01/02 02:57:53;;;;;;;2.93;1.27;;;;;;;6.41;100.00;99286.03;4943729;29;20289;-69
2024/01/02 03:00:21;;;;;;;1.67;1.00;;;;;;;6.35;100.00;99267.53;4944947;28;20295;-70
2024/01/02 03:02:47;;;;;;;3.50;1.20;;;;;;;6.41;100.00;99264.13;4944237;28;20202;-69
2024/01/02 03:05:15;;;;;;;1.73;1.07;;;;;;;6.40;100.00;99249.16;4946899;29;20213;-70
2024/01/02 03:07:42;;;;;;;1.63;1.20;;;;;;;6.39;100.00;99244.78;4945091;28;20209;-69
2024/01/02 03:10:11;;;;;;;3.63;1.03;;;;;;;6.39;100.00;99245.66;4950169;28;20652;-70
2024/01/02 03:12:37;;;;;;;2.73;1.03;;;;;;;6.41;100.00;99237.81;4950804;28;20755;-69
2024/01/02 03:15:04;;;;;;;2.77;1.30;;;;;;;6.41;100.00;99229.94;4950078;29;20229;-68
2024/01/02 03:17:33;;;;;;;2.50;1.10;;;;;;;6.46;100.00;99223.84;4951180;28;20206;-69
2024/01/02 03:20:00;;;;;;;2.20;0.87;;;;;;;6.45;100.00;99206.31;4946207;28;20677;-69
2024/01/02 03:22:26;;;;;;;2.80;1.07;;;;;;;6.47;100.00;99193.19;4943185;28;20209;-69
2024/01/02 03:24:52;;;;;;;1.63;0.90;;;;;;;6.44;100.00;99196.66;4942645;29;20651;-70
2024/01/02 03:27:19;;;;;;;1.10;0.90;;;;;;;6.50;100.00;99186.19;4943809;28;20241;-70
2024/01/02 03:29:45;;;;;;;1.47;0.80;;;;;;;6.53;100.00;99182.72;4944813;29;20261;-70
2024/01/02 03:32:12;;;;;;;1.23;0.73;;;;;;;6.48;100.00;99166.88;4943196;28;20241;-70
2024/01/02 03:34:38;;;;;;;1.17;1.00;;;;;;;6.52;100.00;99176.56;4943968;28;20248;-69
2024/01/02 03:37:05;;;;;;;0.87;0.80;;;;;;;6.49;100.00;99173.03;4943877;28;20677;-69
2024/01/02 03:39:31;;;;;;;3.90;0.80;;;;;;;6.51;100.00;99168.66;4942832;28;20295;-69
2024/01/02 03:41:57;;;;;;;1.70;1.00;;;;;;;6.52;100.00;99163.41;4943746;28;20329;-69
2024/01/02 03:44:24;;;;;;;0.97;0.90;;;;;;;6.54;100.00;99151.16;4943980;29;20210;-69
2024/01/02 03:46:50;;;;;;;2.10;1.10;;;;;;;6.54;100.00;99140.66;4957370;28;20214;-69
2024/01/02 03:49:17;;;;;;;1.50;0.90;;;;;;;6.54;100.00;99121.34;4943352;28;20962;-70
2024/01/02 03:51:43;;;;;;;2.03;1.00;;;;;;;6.50;100.00;99117.81;4958446;28;20225;-69
2024/01/02 03:54:10;;;;;;;4.00;1.07;;;;;;;6.46;100.00;99109.88;4943896;29;20232;-69
2024/01/02 03:56:37;;;;;;;1.60;1.00;;;;;;;6.47;100.00;99114.28;4958513;28;20207;-69
2024/01/02 03:59:03;;;;;;;2.50;0.80;;;;;;;6.45;100.00;99108.13;4958215;28;20208;-70
2024/01/02 04:01:30;;;;;;;1.07;0.90;;;;;;;6.43;100.00;99100.22;4945570;28;20261;-70
2024/01/02 04:03:56;;;;;;;5.63;1.10;;;;;;;6.40;100.00;99105.44;4945357;28;20244;-69
2024/01/02 04:06:22;;;;;;;4.30;1.20;;;;;;;6.33;100.00;99079.94;4943692;29;20229;-70
2024/01/02 04:08:49;;;;;;;1.63;1.03;;;;;;;6.35;100.00;99087.84;4942897;29;20232;-69
2024/01/02 04:11:16;;;;;;;3.33;1.13;;;;;;;6.34;100.00;99080.84;4942976;28;20308;-68
2024/01/02 04:13:43;;;;;;;1.47;1.00;;;;;;;6.28;100.00;99072.03;4943785;29;20311;-71
2024/01/02 04:16:09;;;;;;;2.00;1.10;;;;;;;6.24;100.00;99058.84;4958366;29;20248;-70
2024/01/02 04:18:36;;;;;;;1.70;1.03;;;;;;;6.24;100.00;99064.97;4961089;29;20199;-71
2024/01/02 04:21:02;;;;;;;1.20;1.00;;;;;;;6.24;100.00;99056.22;4964009;28;20229;-70
2024/01/02 04:23:29;;;;;;;1.40;0.90;;;;;;;6.21;100.00;99046.56;4947638;28;20299;-70
2024/01/02 04:25:55;;;;;;;2.10;1.00;;;;;;;6.20;100.00;99038.66;4943337;29;20675;-70
2024/01/02 04:28:21;;;;;;;2.27;1.10;;;;;;;6.25;100.00;99027.31;4944691;28;20307;-69
2024/01/02 04:30:48;;;;;;;1.03;0.90;;;;;;;6.23;100.00;99021.16;4943531;28;20232;-70
2024/01/02 04:33:14;;;;;;;1.00;0.80;;;;;;;6.23;100.00;99012.41;4958751;28;20222;-70
2024/01/02 04:35:41;;;;;;;1.30;0.97;;;;;;;6.21;100.00;99015.00;4941949;28;20427;-70
2024/01/02 04:38:07;;;;;;;1.13;0.80;;;;;;;6.24;100.00;99012.41;4942812;28;20231;-70
2024/01/02 04:40:34;;;;;;;1.80;1.03;;;;;;;6.23;100.00;99007.13;4944369;28;20288;-69
2024/01/02 04:43:01;;;;;;;4.63;1.07;;;;;;;6.22;100.00;98990.47;4941834;29;20236;-70
2024/01/02 04:45:27;;;;;;;1.27;0.87;;;;;;;6.22;100.00;98995.75;4942328;28;20208;-70
2024/01/02 04:47:54;;;;;;;1.03;0.80;;;;;;;6.23;100.00;98979.09;4943436;29;20302;-69
2024/01/02 04:50:20;;;;;;;2.43;1.10;;;;;;;6.22;100.00;98969.44;4943642;28;20711;-70
2024/01/02 04:52:46;;;;;;;2.40;1.13;;;;;;;6.22;100.00;98968.56;4942213;28;20203;-69
2024/01/02 04:55:13;;;;;;;1.43;0.97;;;;;;;6.21;100.00;98959.81;4940809;29;20756;-70
2024/01/02 04:57:40;;;;;;;2.50;1.10;;;;;;;6.21;100.00;98944.03;4943786;29;20236;-70
2024/01/02 05:00:07;;;;;;;2.57;1.27;;;;;;;6.19;100.00;98924.75;4943677;28;20532;-69
2024/01/02 05:02:33;;;;;;;3.27;1.10;;;;;;;6.22;100.00;98921.25;4943901;28;20212;-69
2024/01/02 05:05:00;;;;;;;2.23;1.30;;;;;;;6.24;100.00;98922.16;4945544;28;20219;-70
2024/01/02 05:07:26;;;;;;;1.30;0.97;;;;;;;6.26;100.00;98923.03;4947008;29;20209;-70
2024/01/02 05:09:53;;;;;;;1.40;1.07;;;;;;;6.23;100.00;98917.75;4946166;28;20206;-69
2024/01/02 05:12:19;;;;;;;1.83;1.00;;;;;;;6.28;100.00;98906.41;4944733;28;20681;-69
2024/01/02 05:14:45;;;;;;;1.13;1.00;;;;;;;6.29;100.00;98899.41;4948025;28;20296;-68
2024/01/02 05:17:12;;;;;;;1.60;1.17;;;;;;;6.33;100.00;98895.03;4945754;28;20219;-69
2024/01/02 05:19:38;;;;;;;1.23;1.00;;;;;;;6.35;100.00;98885.41;4946929;28;20570;-69
2024/01/02 05:22:05;;;;;;;2.33;1.37;;;;;;;6.33;100.00;98884.50;4945129;28;20244;-69
2024/01/02 05:24:31;;;;;;;1.73;1.07;;;;;;;6.38;100.00;98890.69;4946097;29;20208;-69
2024/01/02 05:26:58;;;;;;;2.60;1.20;;;;;;;6.42;100.00;98889.84;4947039;28;20374;-70
2024/01/02 05:29:24;;;;;;;3.10;1.20;;;;;;;6.41;100.00;98893.34;4960014;28;20684;-70
2024/01/02 05:31:50;;;;;;;2.20;1.17;;;;;;;6.40;100.00;98888.94;4945640;28;20235;-69
2024/01/02 05:34:18;;;;;;;1.80;1.20;;;;;;;6.43;100.00;98887.22;4948068;29;20218;-70
2024/01/02 05:36:46;;;;;;;1.17;0.93;;;;;;;6.42;100.00;98887.22;4949069;28;20571;-67
2024/01/02 05:39:12;;;;;;;1.13;1.00;;;;;;;6.44;100.00;98874.97;4952161;28;20239;-67
2024/01/02 05:41:39;;;;;;;2.50;1.10;;;;;;;6.43;100.00;98874.09;4948475;28;20233;-67
2024/01/02 05:44:05;;;;;;;1.43;1.00;;;;;;;6.50;100.00;98862.72;4950288;28;20210;-67
2024/01/02 05:46:32;;;;;;;2.20;1.00;;;;;;;6.53;100.00;98854.84;4952092;29;20729;-69
2024/01/02 05:48:58;;;;;;;3.23;1.17;;;;;;;6.61;100.00;98857.50;4951903;29;20297;-69
2024/01/02 05:51:25;;;;;;;2.00;1.03;;;;;;;6.58;100.00;98854.88;4952631;28;20231;-69
2024/01/02 05:53:51;;;;;;;3.13;1.10;;;;;;;6.57;100.00;98843.47;4951622;28;20264;-70
2024/01/02 05:56:18;;;;;;;1.60;1.07;;;;;;;6.60;100.00;98842.59;4950759;29;20234;-70
2024/01/02 05:58:44;;;;;;;0.83;0.80;;;;;;;6.67;100.00;98840.88;4952663;28;20214;-69
2024/01/02 06:01:11;;;;;;;1.60;0.60;;;;;;;6.84;100.00;98832.19;4950443;28;20288;-70
2024/01/02 06:03:38;;;;;;;1.13;0.60;;;;;;;6.99;100.00;98841.84;4952847;28;20288;-70
2024/01/02 06:06:05;;;;;;;0.30;0.30;;;;;;;7.18;100.00;98848.03;4951638;28;20624;-69
2024/01/02 06:08:32;;;;;;;1.83;0.53;;;;;;;7.25;100.00;98854.22;4951685;28;20209;-70
2024/01/02 06:10:58;;;;;;;1.83;0.50;;;;;;;7.30;100.00;98848.06;4951057;28;20277;-70
2024/01/02 06:13:24;;;;;;;0.60;0.50;;;;;;;7.35;100.00;98833.16;4951353;28;20221;-70
2024/01/02 06:15:51;;;;;;;0.57;0.43;;;;;;;7.43;100.00;98839.31;4948678;28;20220;-69
2024/01/02 06:18:17;;;;;;;1.13;0.50;;;;;;;7.49;100.00;98836.66;4951651;29;20224;-70
2024/01/02 06:20:44;;;;;;;1.77;0.43;;;;;;;7.52;100.00;98833.16;4962503;22;20304;-76
2024/01/02 06:23:10;;;;;;;0.40;0.40;;;;;;;7.46;100.00;98835.78;4988851;28;20228;-74
2024/01/02 06:25:37;;;;;;;0.40;0.40;;;;;;;7.53;100.00;98835.78;4986875;28;20206;-74
2024/01/02 06:28:04;;;;;;;0.40;0.40;;;;;;;7.60;100.00;98835.78;4990183;28;20208;-72
2024/01/02 06:30:31;;;;;;;0.40;0.40;;;;;;;7.59;100.00;98837.53;4987463;28;20200;-72
2024/01/02 06:32:57;;;;;;;0.30;0.30;;;;;;;7.64;100.00;98843.72;4968760;28;20206;-76
2024/01/02 06:35:24;;;;;;;0.57;0.40;;;;;;;7.62;100.00;98836.69;4968719;28;20716;-72
2024/01/02 06:37:50;;;;;;;0.30;0.30;;;;;;;7.62;100.00;98819.13;4970692;28;20202;-73
2024/01/02 06:40:17;;;;;;;0.40;0.40;;;;;;;7.67;100.00;98827.91;4970327;28;20201;-75
2024/01/02 06:42:43;;;;;;;0.30;0.30;;;;;;;7.74;100.00;98827.03;4962705;28;20225;-75
2024/01/02 06:45:10;;;;;;;0.90;0.50;;;;;;;7.81;100.00;98817.34;4968662;28;20194;-74
2024/01/02 06:47:37;;;;;;;0.47;0.40;;;;;;;7.78;100.00;98817.34;4968767;28;20308;-74
2024/01/02 06:50:05;;;;;;;0.60;0.40;;;;;;;7.81;100.00;98810.31;4969755;28;20207;-73
2024/01/02 06:52:31;;;;;;;0.57;0.40;;;;;;;7.78;100.00;98806.81;4965996;28;20278;-75
2024/01/02 06:54:58;;;;;;;0.33;0.33;;;;;;;7.81;100.00;98807.69;4967209;28;20328;-73
2024/01/02 06:57:24;;;;;;;0.40;0.40;;;;;;;7.86;100.00;98821.72;4969978;28;20694;-72
2024/01/02 06:59:51;;;;;;;0.50;0.50;;;;;;;7.81;100.00;98809.44;4969772;28;20305;-73
2024/01/02 07:02:17;;;;;;;2.27;0.60;;;;;;;7.92;100.00;98828.75;4954696;28;20294;-74
2024/01/02 07:04:43;;;;;;;0.50;0.50;;;;;;;8.01;100.00;98835.78;4955409;28;20214;-74
2024/01/02 07:07:10;;;;;;;0.40;0.40;;;;;;;8.02;100.00;98822.59;4959433;28;20490;-75
2024/01/02 07:09:36;;;;;;;0.50;0.50;;;;;;;8.03;100.00;98824.38;4965370;28;20665;-73
2024/01/02 07:12:03;;;;;;;0.53;0.50;;;;;;;8.08;100.00;98817.31;4960747;28;20308;-74
2024/01/02 07:14:30;;;;;;;0.57;0.40;;;;;;;8.15;100.00;98810.28;4947625;28;20204;-76
2024/01/02 07:16:56;;;;;;;0.90;0.50;;;;;;;8.15;100.00;98805.00;4959370;28;20934;-76
2024/01/02 07:19:23;;;;;;;0.60;0.50;;;;;;;8.23;100.00;98812.88;4964893;28;20309;-74
2024/01/02 07:21:49;;;;;;;0.40;0.40;;;;;;;8.18;100.00;98799.72;4961125;28;20232;-75
2024/01/02 07:24:17;;;;;;;0.40;0.40;;;;;;;8.35;100.00;98810.22;4974440;28;20208;-73
2024/01/02 07:26:43;;;;;;;0.43;0.43;;;;;;;8.31;100.00;98814.59;4968232;28;20193;-74
2024/01/02 07:29:09;;;;;;;0.43;0.40;;;;;;;8.34;100.00;98822.53;4963255;28;20210;-75
2024/01/02 07:31:36;;;;;;;0.40;0.40;;;;;;;8.35;100.00;98819.03;4969084;28;20781;-74
2024/01/02 07:34:02;;;;;;;0.50;0.50;;;;;;;8.47;100.00;98828.69;4968962;28;20579;-77
2024/01/02 07:36:29;;;;;;;0.43;0.43;;;;;;;8.49;100.00;98821.63;4969253;28;20217;-74
2024/01/02 07:38:55;;;;;;;5.73;3.20;;;;;;;8.46;100.00;98819.88;4969775;28;20210;-74
2024/01/02 07:41:22;;;;;;;1.00;0.70;;;;;;;8.51;100.00;98809.31;4967558;28;20317;-74
2024/01/02 07:43:48;;;;;;;0.40;0.40;;;;;;;8.53;100.00;98794.34;4968173;28;20964;-74
2024/01/02 07:46:16;;;;;;;0.40;0.40;;;;;;;8.57;100.00;98803.13;4982542;28;20673;-76
2024/01/02 07:48:42;;;;;;;2.27;0.50;;;;;;;8.63;100.00;98800.47;4962587;28;20202;-74
2024/01/02 07:51:09;;;;;;;0.47;0.43;;;;;;;8.51;100.00;98782.94;4968046;28;20219;-75
2024/01/02 07:53:35;;;;;;;0.30;0.30;;;;;;;8.61;100.00;98807.50;4969314;28;20337;-75
2024/01/02 07:56:04;;;;;;;0.40;0.40;;;;;;;8.59;100.00;98786.41;4967911;28;20286;-74
2024/01/02 07:58:30;;;;;;;0.30;0.30;;;;;;;8.60;100.00;98771.44;4958259;28;20218;-74
2024/01/02 08:00:57;;;;;;;0.30;0.30;;;;;;;8.70;100.00;98786.34;4962131;28;20233;-75
2024/01/02 08:03:23;;;;;;;0.30;0.30;;;;;;;8.56;100.00;98761.81;4952508;28;20201;-74
2024/01/02 08:05:50;;;;;;;0.60;0.60;;;;;;;8.73;100.00;98807.44;4969024;28;20282;-77
2024/01/02 08:08:16;;;;;;;0.50;0.40;;;;;;;8.71;100.00;98799.53;4983973;28;20217;-74
2024/01/02 08:10:43;;;;;;;0.50;0.50;;;;;;;8.72;100.00;98782.81;4968050;28;20291;-74
2024/01/02 08:13:09;;;;;;;0.53;0.47;;;;;;;8.84;100.00;98808.28;4967210;28;20202;-74
2024/01/02 08:15:36;;;;;;;0.40;0.40;;;;;;;8.89;100.00;98805.63;4968559;28;20217;-73
2024/01/02 08:18:07;;;;;;;0.40;0.40;;;;;;;8.90;100.00;98802.09;4969314;28;20730;-75
2024/01/02 08:20:35;;;;;;;0.80;0.40;;;;;;;8.95;100.00;98813.50;4968180;28;20601;-74
2024/01/02 08:23:03;;;;;;;0.53;0.40;;;;;;;8.93;100.00;98805.59;4968797;28;20204;-74
2024/01/02 08:25:30;;;;;;;0.40;0.40;;;;;;;8.95;100.00;98809.09;4968118;28;20196;-75
2024/01/02 08:27:56;;;;;;;1.23;0.30;;;;;;;8.94;100.00;98806.47;4966787;28;20328;-74
2024/01/02 08:30:23;;;;;;;0.30;0.30;;;;;;;9.01;100.00;98821.38;4968874;28;20288;-73
2024/01/02 08:32:50;;;;;;;1.80;0.50;;;;;;;9.04;100.00;98821.38;4967133;28;20224;-74
2024/01/02 08:35:17;;;;;;;0.40;0.40;;;;;;;9.00;100.00;98815.22;4966783;28;20206;-74
2024/01/02 08:37:44;;;;;;;1.00;0.40;;;;;;;9.05;100.00;98829.28;4968834;28;20263;-75
2024/01/02 08:40:11;;;;;;;0.30;0.30;;;;;;;9.08;100.00;98829.25;4971526;28;20269;-75
2024/01/02 08:42:37;;;;;;;0.40;0.40;;;;;;;9.03;100.00;98811.69;4968319;28;20729;-74
2024/01/02 08:45:05;;;;;;;0.50;0.40;;;;;;;9.07;100.00;98830.16;4972403;28;20699;-77
2024/01/02 08:47:33;;;;;;;0.40;0.40;;;;;;;9.10;100.00;98818.69;4970746;28;20704;-73
2024/01/02 08:50:00;;;;;;;0.43;0.43;;;;;;;9.17;100.00;98828.31;4972431;28;20677;-72
2024/01/02 08:52:26;;;;;;;0.40;0.40;;;;;;;9.19;100.00;98829.19;4972707;28;20269;-76
2024/01/02 08:54:53;;;;;;;0.40;0.40;;;;;;;9.20;100.00;98823.03;4971845;28;20396;-73
2024/01/02 08:57:19;;;;;;;0.40;0.40;;;;;;;9.28;100.00;98839.72;4969149;28;20397;-73
2024/01/02 08:59:45;;;;;;;0.97;0.37;;;;;;;9.31;100.00;98842.34;4970632;28;20629;-73
2024/01/02 09:02:12;;;;;;;0.40;0.40;;;;;;;9.36;100.00;98831.75;4968098;28;20232;-73
2024/01/02 09:04:39;;;;;;;0.40;0.40;;;;;;;9.39;100.00;98839.66;4973292;28;20212;-73
2024/01/02 09:07:05;;;;;;;0.40;0.40;;;;;;;9.38;100.00;98830.84;4969575;28;20206;-74
2024/01/02 09:09:31;;;;;;;0.47;0.40;;;;;;;9.44;100.00;98837.84;4986085;28;20209;-72
2024/01/02 09:11:58;;;;;;;1.07;0.47;;;;;;;9.48;100.00;98833.41;4971184;28;20235;-73
2024/01/02 09:14:24;;;;;;;1.50;0.63;;;;;;;9.47;100.00;98834.28;4965273;28;20289;-70
2024/01/02 09:16:51;;;;;;;0.47;0.47;;;;;;;9.46;100.00;98830.78;4971573;28;20215;-75
2024/01/02 09:19:17;;;;;;;0.40;0.40;;;;;;;9.46;100.00;98848.41;4967633;28;20214;-72
2024/01/02 09:21:44;;;;;;;0.67;0.40;;;;;;;9.45;100.00;98838.72;4970062;28;20229;-76
2024/01/02 09:24:13;;;;;;;0.57;0.33;;;;;;;9.47;100.00;98840.47;4971628;28;20295;-73
2024/01/02 09:26:40;;;;;;;0.30;0.30;;;;;;;9.51;100.00;98841.31;4966516;28;20204;-73
2024/01/02 09:29:07;;;;;;;0.47;0.47;;;;;;;9.47;100.00;98839.59;4971035;28;20203;-71
2024/01/02 09:31:33;;;;;;;0.40;0.40;;;;;;;9.50;100.00;98829.88;4969051;28;20605;-72
2024/01/02 09:34:00;;;;;;;0.40;0.40;;;;;;;9.52;100.00;98832.50;4969583;28;20281;-69
2024/01/02 09:36:29;;;;;;;0.97;0.50;;;;;;;9.53;100.00;98843.06;4969097;28;20226;-71
2024/01/02 09:38:56;;;;;;;0.30;0.30;;;;;;;9.54;100.00;98849.22;4967855;28;20204;-71
2024/01/02 09:41:35;;;;;;;0.40;0.40;;;;;;;9.56;100.00;98863.28;4963487;28;20228;-75
2024/01/02 09:44:28;;;;;;;0.77;0.50;;;;;;;9.53;100.00;98850.09;4969064;28;20198;-72
2024/01/02 09:47:08;;;;;;;0.30;0.30;;;;;;;9.65;100.00;98858.84;4967169;28;20203;-74
2024/01/02 09:49:46;;;;;;;0.40;0.40;;;;;;;9.67;100.00;98869.41;4968241;28;20696;-78
2024/01/02 09:52:32;;;;;;;0.30;0.30;;;;;;;9.67;100.00;98862.34;4969972;28;20221;-73
2024/01/02 09:55:56;;;;;;;0.40;0.40;;;;;;;9.71;100.00;98857.91;4968415;28;20201;-74
2024/01/02 09:58:47;;;;;;;0.67;0.33;;;;;;;9.69;100.00;98852.63;4930101;29;20221;-74
2024/01/02 10:01:49;;;;;;;0.40;0.40;;;;;;;9.74;100.00;98852.59;4928323;29;20228;-73
2024/01/02 10:04:30;;;;;;;0.40;0.40;;;;;;;9.77;100.00;98857.84;4948027;28;20278;-73
2024/01/02 10:07:07;;;;;;;0.40;0.40;;;;;;;9.71;100.00;98853.50;4963572;28;20259;-75
2024/01/02 10:10:12;;;;;;;0.70;0.47;;;;;;;9.72;100.00;98847.31;4964006;28;20218;-74
2024/01/02 10:13:07;;;;;;;0.50;0.50;;;;;;;9.79;100.00;98858.72;4970194;28;20289;-73
2024/01/02 10:15:43;;;;;;;0.70;0.40;;;;;;;9.79;100.00;98853.44;4970292;28;20740;-73
2024/01/02 10:18:22;;;;;;;0.80;0.50;;;;;;;9.83;100.00;98860.44;4962739;28;20209;-73
2024/01/02 10:21:20;;;;;;;1.50;0.50;;;;;;;9.71;100.00;98827.06;4967121;28;20224;-74
2024/01/02 10:24:05;;;;;;;1.83;0.50;;;;;;;9.88;100.00;98856.00;4966001;28;20208;-75
2024/01/02 10:26:36;;;;;;;0.70;0.60;;;;;;;9.93;100.00;98834.78;4981677;28;20228;-73
2024/01/02 10:29:05;;;;;;;0.40;0.40;;;;;;;9.96;100.00;98840.94;4966928;28;20205;-74
2024/01/02 10:31:40;;;;;;;1.90;0.67;;;;;;;10.08;100.00;98841.72;4960275;28;20779;-75
2024/01/02 10:34:25;;;;;;;0.60;0.60;;;;;;;10.07;100.00;98825.00;4963527;28;20206;-78
2024/01/02 10:37:04;;;;;;;2.30;0.70;;;;;;;10.16;100.00;98837.25;4958037;28;20223;-73
2024/01/02 10:39:40;;;;;;;1.00;0.60;;;;;;;10.14;100.00;98816.09;4969361;28;20583;-75
2024/01/02 10:42:24;;;;;;;1.33;0.60;;;;;;;10.22;100.00;98835.44;4969690;28;20224;-73
2024/01/02 10:45:12;;;;;;;1.37;0.60;;;;;;;10.23;100.00;98833.66;4970208;28;20756;-74
2024/01/02 10:48:06;;;;;;;0.60;0.60;;;;;;;10.19;100.00;98816.91;4971372;28;20287;-75
2024/01/02 10:50:53;;;;;;;0.90;0.50;;;;;;;10.21;100.00;98823.09;4969745;28;20213;-75
2024/01/02 10:53:31;;;;;;;1.30;0.50;;;;;;;10.24;100.00;98831.00;4969098;28;20231;-74
2024/01/02 10:56:12;;;;;;;0.93;0.43;;;;;;;10.20;100.00;98828.38;4965898;28;20226;-77
2024/01/02 10:58:53;;;;;;;0.73;0.40;;;;;;;10.21;100.00;98816.94;4970882;28;20226;-75
2024/01/02 11:01:22;;;;;;;1.80;0.70;;;;;;;10.19;100.00;98823.97;4969099;28;20230;-74
2024/01/02 11:03:57;;;;;;;0.40;0.40;;;;;;;10.13;100.00;98821.41;4969798;28;20292;-74
2024/01/02 11:06:38;;;;;;;0.47;0.47;;;;;;;10.11;100.00;98818.78;4967217;28;20746;-74
2024/01/02 11:09:17;;;;;;;1.73;0.60;;;;;;;10.16;100.00;98822.25;4970187;28;20248;-73
2024/01/02 11:11:50;;;;;;;0.37;0.37;;;;;;;10.15;100.00;98828.44;4969353;28;20727;-74
2024/01/02 11:14:40;;;;;;;1.77;0.80;;;;;;;10.10;100.00;98811.72;4970764;28;20302;-71
2024/01/02 11:17:07;;;;;;;0.47;0.40;;;;;;;10.10;100.00;98819.66;4968892;28;20707;-72
2024/01/02 11:19:40;;;;;;;1.07;0.47;;;;;;;10.14;100.00;98808.16;4984816;28;20215;-74
2024/01/02 11:22:20;;;;;;;0.60;0.50;;;;;;;10.03;100.00;98794.19;4968897;28;20233;-71
2024/01/02 11:24:56;;;;;;;1.00;0.67;;;;;;;10.14;100.00;98797.56;4970263;28;20309;-74
2024/01/02 11:27:24;;;;;;;1.93;0.70;;;;;;;10.13;100.00;98797.59;4966378;28;20206;-70
2024/01/02 11:29:53;;;;;;;2.40;0.90;;;;;;;10.15;100.00;98796.69;4981648;28;20212;-75
2024/01/02 11:32:42;;;;;;;2.97;1.80;;;;;;;10.14;100.00;98792.28;4963440;28;20221;-72
2024/01/02 11:35:09;;;;;;;3.30;1.60;;;;;;;10.09;100.00;98780.00;4982778;28;20220;-73
2024/01/02 11:37:38;;;;;;;1.43;1.13;;;;;;;10.12;100.00;98791.44;4968517;28;20302;-74
2024/01/02 11:40:19;;;;;;;3.17;1.67;;;;;;;10.12;100.00;98793.19;4969780;28;20767;-73